createdAt,value
2023-01-25T00:02:30.191Z,13.50
2023-01-25T00:06:35.665Z,12.30
2023-01-25T00:10:40.910Z,13.50
2023-01-25T00:14:46.412Z,12.50
2023-01-25T00:18:51.658Z,9.40
2023-01-25T00:22:56.908Z,8.40
2023-01-25T00:27:02.975Z,9.80
2023-01-25T00:31:08.930Z,12.80
2023-01-25T00:35:14.528Z,6.60
2023-01-25T00:39:19.756Z,9.20
2023-01-25T00:43:24.969Z,10.90
2023-01-25T00:47:30.231Z,11.70
2023-01-25T00:51:35.574Z,9.60
2023-01-25T00:55:40.771Z,15.50
2023-01-25T00:59:47.545Z,10.50
2023-01-25T01:03:54.141Z,8.00
2023-01-25T01:07:59.373Z,5.90
2023-01-25T01:12:04.876Z,8.90
2023-01-25T01:16:12.017Z,9.10
2023-01-25T01:20:17.801Z,9.00
2023-01-25T01:24:23.097Z,7.80
2023-01-25T01:28:28.990Z,9.20
2023-01-25T01:32:34.311Z,9.90
2023-01-25T01:36:39.640Z,8.80
2023-01-25T01:40:47.099Z,9.10
2023-01-25T01:44:53.101Z,9.80
2023-01-25T01:49:00.322Z,6.60
2023-01-25T01:53:05.607Z,9.20
2023-01-25T01:57:11.660Z,9.10
2023-01-25T02:05:56.165Z,11.40
2023-01-25T02:10:01.922Z,8.30
2023-01-25T02:14:07.687Z,3.00
2023-01-25T02:18:13.635Z,8.90
2023-01-25T02:22:26.322Z,8.10
2023-01-25T02:26:32.167Z,10.00
2023-01-25T02:30:37.432Z,8.30
2023-01-25T02:34:42.643Z,8.20
2023-01-25T02:38:49.486Z,9.30
2023-01-25T02:42:54.792Z,9.60
2023-01-25T02:47:00.100Z,11.70
2023-01-25T02:51:07.788Z,9.30
2023-01-25T02:55:13.225Z,7.00
2023-01-25T02:59:19.113Z,8.00
2023-01-25T03:03:24.449Z,6.40
2023-01-25T03:07:29.777Z,10.00
2023-01-25T03:11:35.219Z,9.40
2023-01-25T03:15:40.452Z,8.50
2023-01-25T03:19:45.709Z,4.70
2023-01-25T03:23:56.302Z,8.80
2023-01-25T03:28:01.599Z,11.50
2023-01-25T03:32:07.121Z,12.80
2023-01-25T03:36:12.547Z,10.90
2023-01-25T03:40:18.359Z,9.90
2023-01-25T03:44:23.630Z,12.10
2023-01-25T03:48:29.333Z,10.30
2023-01-25T03:52:38.681Z,5.40
2023-01-25T03:56:43.884Z,13.50
2023-01-25T04:00:49.120Z,17.60
2023-01-25T04:04:54.382Z,7.80
2023-01-25T04:09:01.997Z,14.80
2023-01-25T04:13:07.360Z,15.40
2023-01-25T04:17:13.083Z,13.60
2023-01-25T04:21:18.349Z,16.20
2023-01-25T04:25:23.744Z,16.10
2023-01-25T04:29:40.451Z,9.30
2023-01-25T04:33:46.539Z,12.90
2023-01-25T04:37:56.220Z,19.70
2023-01-25T04:42:01.471Z,13.70
2023-01-25T04:46:06.969Z,19.60
2023-01-25T04:50:12.523Z,19.50
2023-01-25T04:54:18.244Z,13.10
2023-01-25T04:58:23.681Z,16.40
2023-01-25T05:02:29.093Z,14.00
2023-01-25T05:06:34.491Z,18.10
2023-01-25T05:10:39.739Z,19.00
2023-01-25T05:14:44.974Z,9.60
2023-01-25T05:18:50.299Z,22.70
2023-01-25T05:22:55.635Z,7.20
2023-01-25T05:27:08.094Z,8.10
2023-01-25T05:31:13.349Z,9.60
2023-01-25T05:35:18.650Z,21.40
2023-01-25T05:39:23.876Z,13.00
2023-01-25T05:43:29.105Z,4.50
2023-01-25T05:47:34.505Z,17.30
2023-01-25T05:51:39.843Z,21.30
2023-01-25T05:55:45.036Z,25.40
2023-01-25T05:59:50.294Z,21.30
2023-01-25T06:03:55.794Z,24.40
2023-01-25T06:08:01.099Z,23.90
2023-01-25T06:12:06.893Z,20.30
2023-01-25T06:16:12.411Z,24.80
2023-01-25T06:20:17.943Z,18.00
2023-01-25T06:24:23.285Z,18.60
2023-01-25T06:28:30.554Z,26.10
2023-01-25T06:32:35.838Z,20.50
2023-01-25T06:36:41.057Z,21.50
2023-01-25T06:40:46.300Z,26.20
2023-01-25T06:44:51.492Z,19.60
2023-01-25T06:48:56.724Z,17.10
2023-01-25T06:53:01.985Z,23.00
2023-01-25T06:57:10.310Z,24.00
2023-01-25T07:01:17.009Z,27.70
2023-01-25T07:05:24.150Z,26.30
2023-01-25T07:09:29.404Z,13.30
2023-01-25T07:13:35.455Z,22.60
2023-01-25T07:17:40.757Z,20.10
2023-01-25T07:21:47.172Z,20.10
2023-01-25T07:29:56.018Z,22.50
2023-01-25T07:34:01.251Z,12.70
2023-01-25T07:38:06.511Z,26.20
2023-01-25T07:42:11.706Z,26.40
2023-01-25T07:46:17.332Z,22.40
2023-01-25T07:50:22.561Z,24.50
2023-01-25T07:54:27.750Z,18.00
2023-01-25T07:58:32.959Z,21.80
2023-01-25T08:02:38.161Z,22.60
2023-01-25T08:06:46.580Z,23.30
2023-01-25T08:10:51.887Z,22.90
2023-01-25T08:14:57.488Z,26.20
2023-01-25T08:19:03.318Z,27.90
2023-01-25T08:23:08.617Z,14.80
2023-01-25T08:27:13.866Z,21.20
2023-01-25T08:31:20.959Z,20.10
2023-01-25T08:35:26.245Z,18.80
2023-01-25T08:39:31.461Z,21.40
2023-01-25T08:43:36.774Z,22.00
2023-01-25T08:47:42.119Z,12.20
2023-01-25T08:51:48.235Z,17.50
2023-01-25T08:55:53.455Z,21.60
2023-01-25T08:59:58.687Z,24.90
2023-01-25T09:04:03.970Z,22.00
2023-01-25T09:08:09.933Z,25.00
2023-01-25T09:12:15.121Z,26.00
2023-01-25T09:16:28.260Z,25.10
2023-01-25T09:20:34.630Z,22.50
2023-01-25T09:24:40.283Z,24.70
2023-01-25T09:28:48.030Z,24.80
2023-01-25T09:32:53.289Z,25.00
2023-01-25T09:36:58.556Z,19.10
2023-01-25T09:41:08.978Z,22.10
2023-01-25T09:45:17.854Z,17.90
2023-01-25T09:49:27.908Z,19.80
2023-01-25T09:53:35.948Z,25.00
2023-01-25T09:57:41.934Z,19.90
2023-01-25T10:01:49.514Z,16.00
2023-01-25T10:05:57.487Z,22.70
2023-01-25T10:10:06.961Z,16.80
2023-01-25T10:14:16.724Z,21.90
2023-01-25T10:18:26.395Z,14.20
2023-01-25T10:22:34.899Z,19.00
2023-01-25T10:26:42.472Z,21.70
2023-01-25T10:30:50.878Z,21.40
2023-01-25T10:34:57.816Z,20.90
2023-01-25T10:39:07.465Z,21.40
2023-01-25T10:43:16.231Z,24.60
2023-01-25T10:47:24.990Z,24.60
2023-01-25T10:51:35.428Z,23.50
2023-01-25T10:55:55.210Z,20.90
2023-01-25T11:00:01.705Z,21.30
2023-01-25T11:04:23.554Z,23.80
2023-01-25T11:08:34.427Z,21.60
2023-01-25T11:12:39.689Z,21.70
2023-01-25T11:16:46.546Z,22.80
2023-01-25T11:21:04.283Z,20.80
2023-01-25T11:25:27.856Z,22.10
2023-01-25T11:29:33.080Z,12.90
2023-01-25T11:33:38.368Z,19.80
2023-01-25T11:37:50.972Z,18.80
2023-01-25T11:42:04.501Z,16.50
2023-01-25T11:46:16.716Z,20.20
2023-01-25T11:50:25.244Z,22.90
2023-01-25T11:54:42.327Z,19.40
2023-01-25T11:58:56.956Z,23.90
2023-01-25T12:03:16.953Z,17.20
2023-01-25T12:07:27.234Z,20.00
2023-01-25T12:11:37.827Z,18.60
2023-01-25T12:16:03.937Z,17.80
2023-01-25T12:20:18.640Z,20.00
2023-01-25T12:24:37.693Z,20.40
2023-01-25T12:28:45.171Z,17.70
2023-01-25T12:32:53.849Z,22.00
2023-01-25T12:37:01.884Z,17.40
2023-01-25T12:41:09.429Z,20.10
2023-01-25T12:45:16.573Z,19.10
2023-01-25T12:49:25.087Z,19.20
2023-01-25T12:53:33.443Z,21.60
2023-01-25T12:57:42.451Z,15.80
2023-01-25T13:01:50.552Z,20.90
2023-01-25T13:05:58.007Z,17.30
2023-01-25T13:10:06.846Z,18.20
2023-01-25T13:14:29.313Z,20.40
2023-01-25T13:18:43.873Z,22.20
2023-01-25T13:22:59.614Z,19.90
2023-01-25T13:27:06.585Z,24.80
2023-01-25T13:31:12.070Z,19.90
2023-01-25T13:35:30.925Z,15.30
2023-01-25T13:39:44.099Z,19.10
2023-01-25T13:43:51.599Z,18.70
2023-01-25T13:48:03.278Z,21.70
2023-01-25T13:52:08.653Z,20.30
2023-01-25T13:56:26.898Z,18.40
2023-01-25T14:00:32.179Z,16.90
2023-01-25T14:04:37.493Z,14.20
2023-01-25T14:08:44.288Z,21.30
2023-01-25T14:12:49.591Z,17.10
2023-01-25T14:21:17.421Z,17.60
2023-01-25T14:25:25.609Z,23.30
2023-01-25T14:29:33.226Z,20.90
2023-01-25T14:33:44.555Z,21.10
2023-01-25T14:37:50.000Z,24.90
2023-01-25T14:42:01.290Z,23.10
2023-01-25T14:46:20.494Z,21.80
2023-01-25T14:54:30.225Z,22.20
2023-01-25T14:58:35.509Z,26.60
2023-01-25T15:02:42.144Z,22.60
2023-01-25T15:06:48.560Z,21.40
2023-01-25T15:10:54.728Z,22.50
2023-01-25T15:19:03.558Z,26.40
2023-01-25T15:23:19.247Z,25.90
2023-01-25T15:27:24.561Z,23.50
2023-01-25T15:31:30.522Z,25.80
2023-01-25T15:35:35.837Z,20.90
2023-01-25T15:39:41.070Z,23.40
2023-01-25T15:43:46.900Z,24.50
2023-01-25T15:47:52.142Z,28.40
2023-01-25T15:51:57.408Z,27.00
2023-01-25T15:56:04.807Z,28.10
2023-01-25T16:00:16.453Z,30.50
2023-01-25T16:04:21.744Z,25.60
2023-01-25T16:08:27.191Z,26.40
2023-01-25T16:12:34.527Z,29.30
2023-01-25T16:16:40.960Z,29.00
2023-01-25T16:20:46.316Z,29.90
2023-01-25T16:24:51.541Z,29.40
2023-01-25T16:28:56.758Z,36.30
2023-01-25T16:33:02.053Z,34.50
2023-01-25T16:37:07.375Z,32.70
2023-01-25T16:41:13.667Z,34.10
2023-01-25T16:45:19.472Z,37.50
2023-01-25T16:49:26.586Z,33.90
2023-01-25T16:53:31.858Z,32.80
2023-01-25T16:57:37.090Z,17.10
2023-01-25T17:01:42.310Z,30.40
2023-01-25T17:05:47.546Z,24.40
2023-01-25T17:09:52.757Z,22.70
2023-01-25T17:13:58.873Z,27.50
2023-01-25T17:18:04.124Z,25.60
2023-01-25T17:22:09.366Z,25.30
2023-01-25T17:26:16.388Z,29.80
2023-01-25T17:30:22.125Z,28.50
2023-01-25T17:34:27.435Z,28.20
2023-01-25T17:38:32.639Z,32.80
2023-01-25T17:42:37.910Z,28.20
2023-01-25T17:46:43.097Z,35.30
2023-01-25T17:50:48.300Z,38.90
2023-01-25T17:54:53.549Z,26.70
2023-01-25T17:59:01.124Z,27.80
2023-01-25T18:03:06.499Z,27.30
2023-01-25T18:07:11.744Z,26.70
2023-01-25T18:11:18.201Z,29.20
2023-01-25T18:15:23.628Z,28.40
2023-01-25T18:19:31.279Z,27.80
2023-01-25T18:23:36.763Z,26.70
2023-01-25T18:27:41.963Z,23.60
2023-01-25T18:31:48.841Z,25.40
2023-01-25T18:35:54.289Z,28.80
2023-01-25T18:39:59.520Z,27.10
2023-01-25T18:44:04.708Z,29.00
2023-01-25T18:48:13.205Z,35.70
2023-01-25T18:52:18.734Z,26.90
2023-01-25T18:56:23.922Z,28.20
2023-01-25T19:00:29.181Z,31.20
2023-01-25T19:04:34.472Z,29.10
2023-01-25T19:08:41.447Z,26.20
2023-01-25T19:12:46.679Z,25.80
2023-01-25T19:16:52.131Z,22.70
2023-01-25T19:20:57.378Z,26.60
2023-01-25T19:25:02.601Z,26.30
2023-01-25T19:29:08.290Z,29.20
2023-01-25T19:33:13.657Z,25.10
2023-01-25T19:37:18.879Z,26.70
2023-01-25T19:41:24.932Z,23.80
2023-01-25T19:45:30.179Z,25.10
2023-01-25T19:49:35.360Z,28.20
2023-01-25T19:53:41.924Z,42.20
2023-01-25T19:57:48.586Z,30.40
2023-01-25T20:01:54.231Z,29.70
2023-01-25T20:05:59.985Z,33.70
2023-01-25T20:10:05.509Z,27.80
2023-01-25T20:14:11.864Z,33.80
2023-01-25T20:18:17.058Z,40.00
2023-01-25T20:22:22.284Z,33.00
2023-01-25T20:26:28.484Z,32.10
2023-01-25T20:30:34.245Z,31.00
2023-01-25T20:34:39.639Z,32.50
2023-01-25T20:38:45.011Z,29.70
2023-01-25T20:42:50.451Z,33.10
2023-01-25T20:46:55.768Z,22.50
2023-01-25T20:51:03.117Z,26.90
2023-01-25T20:55:09.405Z,28.70
2023-01-25T20:59:16.505Z,25.00
2023-01-25T21:03:21.887Z,20.40
2023-01-25T21:07:27.148Z,25.40
2023-01-25T21:11:32.460Z,22.60
2023-01-25T21:15:38.801Z,25.30
2023-01-25T21:19:44.005Z,30.20
2023-01-25T21:23:50.421Z,20.10
2023-01-25T21:27:55.656Z,25.80
2023-01-25T21:32:00.958Z,24.60
2023-01-25T21:36:08.576Z,24.90
2023-01-25T21:40:14.367Z,29.10
2023-01-25T21:44:37.155Z,25.90
2023-01-25T21:49:00.127Z,27.20
2023-01-25T21:53:05.352Z,23.10
2023-01-25T21:57:11.670Z,21.60
2023-01-25T22:01:20.063Z,29.70
2023-01-25T22:05:25.336Z,30.80
2023-01-25T22:09:30.566Z,26.10
2023-01-25T22:13:36.019Z,26.70
2023-01-25T22:17:41.250Z,31.30
2023-01-25T22:21:46.727Z,20.20
2023-01-25T22:26:00.858Z,32.00
2023-01-25T22:30:07.086Z,28.20
2023-01-25T22:34:12.337Z,32.90
2023-01-25T22:38:17.567Z,26.80
2023-01-25T22:42:22.799Z,33.30
2023-01-25T22:46:29.088Z,32.10
2023-01-25T22:50:34.374Z,33.60
2023-01-25T22:54:39.569Z,35.70
2023-01-25T22:58:45.441Z,31.40
2023-01-25T23:02:50.659Z,49.40
2023-01-25T23:07:02.902Z,41.70
2023-01-25T23:11:09.717Z,36.10
2023-01-25T23:15:19.649Z,30.80
2023-01-25T23:19:27.086Z,36.10
2023-01-25T23:23:32.620Z,35.60
2023-01-25T23:27:38.195Z,37.70
2023-01-25T23:31:43.472Z,34.40
2023-01-25T23:35:48.695Z,36.30
2023-01-25T23:39:53.921Z,33.10
2023-01-25T23:43:59.787Z,35.80
2023-01-25T23:48:04.992Z,35.20
2023-01-25T23:52:10.387Z,33.40
2023-01-25T23:56:16.954Z,37.50
